Time;durP1;ratioP1;P1;durP2;ratioP2;P2;SDS_P1;SDS_P2;PMS_P1;PMS_P2;Temp;Humidity;BMP_temperature;BMP_pressure;BME280_temperature;BME280_humidity;BME280_pressure;Samples;Min_cycle;Max_cycle;Signal;HPM_P1;HPM_P2
2022/12/22 03:26:29;;;;;;;79.00;39.53;;;;;;;5.58;100.00;100214.97;4978843;28;20181;-42
2022/12/22 03:28:54;;;;;;;87.85;39.78;;;;;;;5.60;100.00;100211.41;4978776;28;20189;-41
2022/12/22 03:31:20;;;;;;;80.55;39.78;;;;;;;5.58;100.00;100204.34;4984478;28;20707;-43
2022/12/22 03:33:46;;;;;;;83.55;38.75;;;;;;;5.58;100.00;100198.16;4977406;28;20185;-43
2022/12/22 03:36:11;;;;;;;84.28;40.13;;;;;;;5.56;100.00;100200.88;4975353;28;20170;-42
2022/12/22 03:38:37;;;;;;;84.38;41.00;;;;;;;5.60;100.00;100192.78;4978950;28;20652;-42
2022/12/22 03:41:02;;;;;;;87.18;39.28;;;;;;;5.58;100.00;100198.16;4980068;28;20637;-44
2022/12/22 03:46:29;;;;;;;91.25;40.42;;;;;;;5.59;100.00;100181.28;4978284;28;20335;-43
2022/12/22 03:49:09;;;;;;;84.28;38.92;;;;;;;5.61;100.00;100182.13;4977549;28;20265;-42
2022/12/22 03:51:42;;;;;;;84.82;39.35;;;;;;;5.62;100.00;100175.03;4979378;28;20630;-45
2022/12/22 03:54:09;;;;;;;89.82;40.35;;;;;;;5.65;100.00;100178.47;4986385;28;20241;-39
2022/12/22 03:56:36;;;;;;;77.85;37.92;;;;;;;5.65;100.00;100185.59;4978867;28;20624;-39
2022/12/22 03:59:01;;;;;;;94.70;40.33;;;;;;;5.63;100.00;100180.31;4976366;28;20165;-43
2022/12/22 04:01:27;;;;;;;92.88;40.83;;;;;;;5.63;100.00;100169.66;4990513;28;20276;-43
2022/12/22 04:03:52;;;;;;;96.13;39.20;;;;;;;5.64;100.00;100173.19;4990856;28;20173;-41
2022/12/22 04:06:18;;;;;;;88.72;39.42;;;;;;;5.62;100.00;100159.97;4992177;28;20228;-41
2022/12/22 04:08:44;;;;;;;78.07;36.80;;;;;;;5.68;100.00;100162.44;4986166;28;20649;-41
2022/12/22 04:13:55;;;;;;;75.57;34.63;;;;;;;5.69;100.00;100158.00;5070957;23;21117;-40
2022/12/22 04:16:21;;;;;;;78.05;36.10;;;;;;;5.68;100.00;100156.25;4995511;28;20200;-41
2022/12/22 04:18:46;;;;;;;80.80;36.50;;;;;;;5.66;100.00;100158.94;4992239;28;20212;-43
2022/12/22 04:21:12;;;;;;;76.75;34.47;;;;;;;5.66;100.00;100150.09;5002192;28;20287;-43
2022/12/22 04:23:37;;;;;;;76.78;36.47;;;;;;;5.69;100.00;100153.56;5013648;28;20605;-43
2022/12/22 04:26:03;;;;;;;75.50;34.25;;;;;;;5.66;100.00;100148.31;5022117;28;20298;-43
2022/12/22 04:28:28;;;;;;;74.28;34.17;;;;;;;5.69;100.00;100144.72;5021060;28;20195;-42
2022/12/22 04:30:54;;;;;;;64.68;31.27;;;;;;;5.75;100.00;100149.81;5016075;28;20207;-43
2022/12/22 04:33:19;;;;;;;79.20;34.67;;;;;;;5.70;100.00;100144.66;5017543;28;20269;-43
2022/12/22 04:35:45;;;;;;;77.35;34.47;;;;;;;5.71;100.00;100145.53;5017860;28;20176;-44
2022/12/22 04:38:10;;;;;;;61.03;31.10;;;;;;;5.75;100.00;100136.53;5021106;28;20181;-42
2022/12/22 04:40:36;;;;;;;72.22;33.38;;;;;;;5.72;100.00;100137.50;5015148;28;20291;-43
2022/12/22 04:43:02;;;;;;;78.68;34.22;;;;;;;5.69;100.00;100131.44;5021198;28;20559;-43
2022/12/22 04:45:27;;;;;;;77.10;34.83;;;;;;;5.68;100.00;100141.16;5019034;28;20651;-42
2022/12/22 04:47:53;;;;;;;72.75;32.53;;;;;;;5.73;100.00;100138.41;5016860;28;20180;-43
2022/12/22 04:50:18;;;;;;;73.68;33.00;;;;;;;5.73;100.00;100135.75;5017958;28;20232;-43
2022/12/22 04:52:44;;;;;;;87.68;35.17;;;;;;;5.74;100.00;100119.72;5019247;28;20215;-43
2022/12/22 04:55:09;;;;;;;83.50;34.80;;;;;;;5.74;100.00;100126.84;5018767;28;20270;-42
2022/12/22 04:57:35;;;;;;;83.13;35.10;;;;;;;5.72;100.00;100118.03;5015753;28;20224;-41
2022/12/22 05:00:01;;;;;;;87.38;35.30;;;;;;;5.71;100.00;100111.84;5015386;28;20187;-44
2022/12/22 05:02:26;;;;;;;84.22;35.70;;;;;;;5.72;100.00;100105.59;5013875;28;20275;-44
2022/12/22 05:04:52;;;;;;;67.25;32.25;;;;;;;5.82;100.00;100098.25;5021920;28;20327;-43
2022/12/22 05:07:19;;;;;;;80.07;34.78;;;;;;;5.75;100.00;100110.84;5016929;28;20181;-42
2022/12/22 05:09:45;;;;;;;78.93;33.70;;;;;;;5.75;100.00;100097.56;5016498;28;20180;-41
2022/12/22 05:14:54;;;;;;;84.72;34.88;;;;;;;5.72;100.00;100094.97;5017133;28;20194;-41
2022/12/22 05:17:20;;;;;;;75.03;34.15;;;;;;;5.77;100.00;100101.06;5020198;28;20489;-41
2022/12/22 05:19:45;;;;;;;83.95;35.15;;;;;;;5.74;100.00;100093.16;5022403;28;20230;-43
2022/12/22 05:22:11;;;;;;;84.47;35.15;;;;;;;5.74;100.00;100106.44;5016654;28;20201;-45
2022/12/22 05:24:36;;;;;;;77.28;34.03;;;;;;;5.75;100.00;100097.56;5020234;28;20211;-41
2022/12/22 05:27:02;;;;;;;76.68;33.42;;;;;;;5.74;100.00;100082.50;5018358;28;20169;-44
2022/12/22 05:29:27;;;;;;;72.07;32.63;;;;;;;5.75;100.00;100084.28;5014876;28;20836;-43
2022/12/22 05:31:53;;;;;;;78.57;34.40;;;;;;;5.75;100.00;100081.63;5022064;28;20232;-44
2022/12/22 05:34:18;;;;;;;80.93;34.05;;;;;;;5.74;100.00;100093.16;5018637;28;20549;-40
2022/12/22 05:36:44;;;;;;;80.03;33.95;;;;;;;5.74;100.00;100094.94;5020196;28;20180;-43
2022/12/22 05:39:09;;;;;;;76.22;32.72;;;;;;;5.75;100.00;100092.25;5028415;28;20628;-45
2022/12/22 05:41:34;;;;;;;78.28;32.67;;;;;;;5.78;100.00;100094.81;5017833;28;20212;-42
2022/12/22 05:44:00;;;;;;;73.03;33.22;;;;;;;5.79;100.00;100093.00;5018561;28;20506;-42
2022/12/22 05:46:25;;;;;;;77.15;32.58;;;;;;;5.77;100.00;100087.75;5020701;28;20193;-42
2022/12/22 05:48:51;;;;;;;79.35;33.80;;;;;;;5.71;100.00;100085.28;5021922;28;20632;-42
2022/12/22 05:51:16;;;;;;;67.85;30.52;;;;;;;5.77;100.00;100081.53;5020929;28;20188;-45
2022/12/22 05:53:42;;;;;;;66.80;30.30;;;;;;;5.71;100.00;100082.63;5021522;28;20199;-43
2022/12/22 05:56:08;;;;;;;64.03;29.83;;;;;;;5.75;100.00;100081.63;5015321;28;20177;-44
2022/12/22 05:58:36;;;;;;;57.05;27.17;;;;;;;5.76;100.00;100083.34;5020469;28;20199;-44
2022/12/22 06:01:02;;;;;;;53.22;26.50;;;;;;;5.79;100.00;100085.03;5018882;28;20168;-43
2022/12/22 06:03:29;;;;;;;56.08;27.17;;;;;;;5.76;100.00;100080.69;5017017;28;20223;-42
2022/12/22 06:05:54;;;;;;;56.55;26.55;;;;;;;5.73;100.00;100082.59;5018941;28;20819;-46
2022/12/22 06:08:20;;;;;;;61.92;26.23;;;;;;;5.73;100.00;100078.13;5020724;28;20570;-43
2022/12/22 06:10:46;;;;;;;60.97;27.63;;;;;;;5.76;100.00;100088.66;5017148;28;20736;-42
2022/12/22 06:13:12;;;;;;;53.85;26.67;;;;;;;5.77;100.00;100086.88;5025768;28;20291;-42
2022/12/22 06:15:37;;;;;;;59.83;26.20;;;;;;;5.78;100.00;100093.94;5019272;28;20218;-43
2022/12/22 06:18:03;;;;;;;57.42;26.85;;;;;;;5.80;100.00;100094.75;5020798;28;20184;-44
2022/12/22 06:20:28;;;;;;;57.20;26.45;;;;;;;5.75;100.00;100092.25;5021261;28;20647;-42
2022/12/22 06:22:54;;;;;;;55.50;25.25;;;;;;;5.74;100.00;100085.19;5021084;28;20371;-43
2022/12/22 06:25:19;;;;;;;56.70;25.85;;;;;;;5.76;100.00;100085.13;5019881;28;20172;-44
2022/12/22 06:27:46;;;;;;;44.75;23.85;;;;;;;5.81;100.00;100079.69;5021877;28;20199;-42
2022/12/22 06:30:12;;;;;;;62.35;27.67;;;;;;;5.80;100.00;100096.56;5020868;28;20172;-42
2022/12/22 06:32:39;;;;;;;61.38;27.38;;;;;;;5.81;100.00;100087.66;5017003;28;20701;-44
2022/12/22 06:35:05;;;;;;;61.63;27.45;;;;;;;5.76;100.00;100082.47;5016473;28;20181;-43
2022/12/22 06:37:31;;;;;;;55.13;27.65;;;;;;;5.81;100.00;100095.63;5016514;28;20662;-43
2022/12/22 06:39:56;;;;;;;57.38;26.95;;;;;;;5.82;100.00;100086.75;5017352;28;20314;-47
2022/12/22 06:45:07;;;;;;;53.65;25.10;;;;;;;5.83;100.00;100083.16;5026204;28;20219;-44
2022/12/22 06:47:32;;;;;;;59.80;26.25;;;;;;;5.76;100.00;100086.00;5017644;28;20219;-42
2022/12/22 06:49:58;;;;;;;52.83;24.30;;;;;;;5.82;100.00;100092.06;5021022;28;20237;-42
2022/12/22 06:52:23;;;;;;;51.70;25.15;;;;;;;5.84;100.00;100084.88;5020553;28;20904;-42
2022/12/22 06:54:49;;;;;;;53.60;25.55;;;;;;;5.81;100.00;100077.88;5019462;28;20563;-43
2022/12/22 06:57:14;;;;;;;52.67;26.20;;;;;;;5.84;100.00;100077.81;5019752;28;20183;-48
2022/12/22 06:59:39;;;;;;;51.25;25.10;;;;;;;5.85;100.00;100079.53;5020972;28;20716;-44
2022/12/22 07:02:05;;;;;;;51.15;25.73;;;;;;;5.87;100.00;100079.50;5022786;28;20215;-48
2022/12/22 07:04:31;;;;;;;63.22;29.20;;;;;;;5.85;100.00;100084.84;5021259;28;20177;-48
2022/12/22 07:06:56;;;;;;;54.83;26.40;;;;;;;5.86;100.00;100080.41;5019544;28;20188;-48
2022/12/22 07:09:22;;;;;;;58.47;27.58;;;;;;;5.89;100.00;100089.16;5019383;28;20279;-47
2022/12/22 07:11:47;;;;;;;61.80;28.48;;;;;;;5.94;100.00;100097.00;5022797;28;20204;-47
2022/12/22 07:14:13;;;;;;;76.70;31.40;;;;;;;5.84;100.00;100083.13;5000783;28;20189;-47
2022/12/22 07:16:38;;;;;;;62.42;28.75;;;;;;;5.89;100.00;100096.28;5015651;28;20192;-48
2022/12/22 07:19:04;;;;;;;70.43;31.38;;;;;;;5.89;100.00;100090.97;5016445;28;20325;-47
2022/12/22 07:21:29;;;;;;;87.50;31.63;;;;;;;5.85;100.00;100084.00;5013690;28;20283;-46
2022/12/22 07:23:55;;;;;;;69.68;30.92;;;;;;;5.87;100.00;100084.81;5015899;28;20718;-46
2022/12/22 07:26:20;;;;;;;76.78;32.00;;;;;;;5.89;100.00;100090.97;5017830;28;20309;-47
2022/12/22 07:28:46;;;;;;;67.60;30.27;;;;;;;5.90;100.00;100084.69;5017129;28;20290;-48
2022/12/22 07:31:24;;;;;;;82.75;32.08;;;;;;;5.87;100.00;100090.13;5019396;28;20215;-47
2022/12/22 07:33:50;;;;;;;84.45;33.10;;;;;;;5.83;100.00;100086.69;5017683;28;20187;-48
2022/12/22 07:36:18;;;;;;;77.93;31.85;;;;;;;5.88;100.00;100087.44;5015534;28;20188;-49
2022/12/22 07:38:46;;;;;;;60.83;28.65;;;;;;;5.91;100.00;100092.63;5020604;28;20669;-50
2022/12/22 07:44:00;;;;;;;71.38;32.25;;;;;;;5.90;100.00;100092.69;5019544;28;20173;-47
2022/12/22 07:46:28;;;;;;;75.82;30.70;;;;;;;5.89;100.00;100086.50;5018267;28;20207;-47
2022/12/22 07:51:39;;;;;;;68.07;30.67;;;;;;;5.91;100.00;100076.69;5017549;28;20262;-45
2022/12/22 07:54:06;;;;;;;64.18;29.48;;;;;;;5.90;100.00;100088.25;5019691;28;20242;-45
2022/12/22 07:56:32;;;;;;;68.05;30.05;;;;;;;5.91;100.00;100097.97;5017297;28;20552;-45
2022/12/22 07:58:58;;;;;;;60.45;30.00;;;;;;;5.92;100.00;100090.84;5014962;28;20176;-46
2022/12/22 08:01:24;;;;;;;71.07;31.10;;;;;;;5.90;100.00;100088.25;5020060;28;20202;-47
2022/12/22 08:03:49;;;;;;;70.65;31.70;;;;;;;5.91;100.00;100091.78;5017045;28;20195;-45
2022/12/22 08:06:15;;;;;;;67.03;31.58;;;;;;;5.93;100.00;100090.81;5020527;28;20615;-44
2022/12/22 08:08:40;;;;;;;75.10;31.80;;;;;;;5.92;100.00;100085.53;5013548;28;20175;-45
2022/12/22 08:11:06;;;;;;;64.80;30.77;;;;;;;5.91;100.00;100091.78;5018761;28;20191;-46
2022/12/22 08:13:31;;;;;;;62.45;30.75;;;;;;;5.96;100.00;100097.84;5018353;28;20296;-45
2022/12/22 08:16:08;;;;;;;53.95;28.58;;;;;;;5.99;100.00;100092.41;5015403;28;20169;-45
2022/12/22 08:18:34;;;;;;;61.13;29.52;;;;;;;5.94;100.00;100091.66;5016743;28;20659;-45
2022/12/22 08:21:01;;;;;;;58.45;29.48;;;;;;;5.93;100.00;100088.16;5017573;28;20308;-47
2022/12/22 08:23:26;;;;;;;60.38;29.00;;;;;;;5.93;100.00;100092.59;5016154;28;20214;-47
2022/12/22 08:26:02;;;;;;;61.78;29.30;;;;;;;5.94;100.00;100086.34;5018720;28;20735;-46
2022/12/22 08:28:31;;;;;;;64.85;29.77;;;;;;;5.99;100.00;100087.09;5015205;28;20643;-46
2022/12/22 08:30:59;;;;;;;63.33;28.85;;;;;;;5.97;100.00;100079.19;5017657;28;20184;-46
2022/12/22 08:33:25;;;;;;;62.15;29.77;;;;;;;5.93;100.00;100081.97;5021789;28;20767;-45
2022/12/22 08:35:50;;;;;;;56.88;26.88;;;;;;;5.95;100.00;100080.16;5017326;28;20219;-47
2022/12/22 08:38:16;;;;;;;56.92;27.85;;;;;;;5.95;100.00;100088.16;5019464;28;20176;-45
2022/12/22 08:40:43;;;;;;;61.92;29.10;;;;;;;5.96;100.00;100082.75;5019921;28;20720;-44
2022/12/22 08:43:10;;;;;;;58.03;28.95;;;;;;;5.94;100.00;100091.66;5015271;28;20204;-46
2022/12/22 08:45:35;;;;;;;62.97;29.77;;;;;;;5.92;100.00;100089.03;5017761;28;20193;-47
2022/12/22 08:48:00;;;;;;;61.25;28.95;;;;;;;5.95;100.00;100088.16;5015288;28;20186;-47
2022/12/22 08:50:26;;;;;;;61.67;30.02;;;;;;;5.94;100.00;100102.31;5015262;28;20184;-47
2022/12/22 08:52:51;;;;;;;59.42;29.33;;;;;;;5.96;100.00;100092.53;5019125;28;20207;-47
2022/12/22 08:55:17;;;;;;;61.58;29.38;;;;;;;5.95;100.00;100102.31;5011390;28;20176;-46
2022/12/22 08:57:42;;;;;;;60.03;29.05;;;;;;;5.97;100.00;100096.94;5017864;28;20636;-46
2022/12/22 09:00:11;;;;;;;62.90;30.25;;;;;;;5.98;100.00;100090.69;5018990;28;20180;-47
2022/12/22 09:02:37;;;;;;;61.42;29.63;;;;;;;5.97;100.00;100091.63;5018029;28;20272;-47
2022/12/22 09:05:03;;;;;;;57.70;30.15;;;;;;;6.01;100.00;100103.03;5018227;28;20644;-47
2022/12/22 09:07:29;;;;;;;62.53;30.90;;;;;;;6.04;100.00;100105.59;5019655;28;20189;-47
2022/12/22 09:09:56;;;;;;;69.03;31.77;;;;;;;6.05;100.00;100094.91;5020600;28;20188;-47
2022/12/22 09:12:21;;;;;;;58.00;29.45;;;;;;;6.08;100.00;100104.56;5018811;28;20216;-45
2022/12/22 09:14:47;;;;;;;66.55;30.80;;;;;;;6.05;100.00;100096.69;5019789;28;20271;-47
2022/12/22 09:17:12;;;;;;;69.80;31.48;;;;;;;6.05;100.00;100105.53;5019981;28;20220;-46
2022/12/22 09:19:38;;;;;;;62.97;29.83;;;;;;;6.09;100.00;100093.88;5022476;28;20172;-47
2022/12/22 09:22:03;;;;;;;67.43;31.15;;;;;;;6.13;100.00;100098.19;5018273;28;20251;-44
2022/12/22 09:24:29;;;;;;;68.05;31.45;;;;;;;6.11;100.00;100101.81;5008667;28;20188;-45
2022/12/22 09:26:54;;;;;;;65.65;30.13;;;;;;;6.18;100.00;100093.56;5022946;28;20200;-44
2022/12/22 09:29:20;;;;;;;60.90;29.70;;;;;;;6.21;100.00;100100.63;5017874;28;20206;-45
2022/12/22 09:31:45;;;;;;;61.08;29.98;;;;;;;6.25;100.00;100101.38;5023677;28;20208;-45
2022/12/22 09:34:11;;;;;;;62.88;30.80;;;;;;;6.22;100.00;100105.00;5021800;28;20216;-47
2022/12/22 09:36:39;;;;;;;68.22;30.98;;;;;;;6.26;100.00;100111.09;5021035;28;20651;-44
2022/12/22 09:39:07;;;;;;;56.80;29.73;;;;;;;6.36;100.00;100110.75;5027342;28;20324;-46
2022/12/22 09:41:52;;;;;;;61.17;30.73;;;;;;;6.31;100.00;100109.16;5021343;28;20293;-46
2022/12/22 09:44:35;;;;;;;59.40;30.38;;;;;;;6.39;100.00;100099.16;5022737;28;20369;-45
2022/12/22 09:47:12;;;;;;;66.53;30.73;;;;;;;6.39;100.00;100101.81;5019426;28;20197;-44
2022/12/22 09:49:38;;;;;;;65.50;31.77;;;;;;;6.48;100.00;100114.81;5017654;28;20219;-46
2022/12/22 09:52:04;;;;;;;64.28;30.83;;;;;;;6.49;100.00;100100.56;5018937;28;20211;-45
2022/12/22 09:54:29;;;;;;;59.83;31.20;;;;;;;6.49;100.00;100111.22;5018667;28;20267;-44
2022/12/22 09:56:57;;;;;;;56.10;30.08;;;;;;;6.44;100.00;100094.53;5016181;28;20275;-45
2022/12/22 09:59:26;;;;;;;60.88;31.48;;;;;;;6.44;100.00;100096.34;5020856;28;20211;-47
2022/12/22 10:02:03;;;;;;;57.17;30.42;;;;;;;6.42;100.00;100093.72;5016960;28;20327;-46
2022/12/22 10:04:37;;;;;;;56.95;31.48;;;;;;;6.48;100.00;100100.63;5020714;28;20176;-47
2022/12/22 10:07:29;;;;;;;58.13;30.10;;;;;;;6.50;100.00;100097.00;5020067;28;20231;-46
2022/12/22 10:09:55;;;;;;;55.40;29.27;;;;;;;6.60;100.00;100090.47;5016565;28;20663;-46
2022/12/22 10:12:23;;;;;;;55.95;29.77;;;;;;;6.62;100.00;100087.72;5022714;28;20196;-46
2022/12/22 10:14:51;;;;;;;51.55;29.55;;;;;;;6.60;100.00;100094.88;5019366;28;20192;-45
2022/12/22 10:17:28;;;;;;;53.67;30.20;;;;;;;6.57;100.00;100095.00;5025589;28;20187;-47
2022/12/22 10:20:20;;;;;;;56.13;29.63;;;;;;;6.51;100.00;100098.72;5020457;28;20264;-44
2022/12/22 10:22:53;;;;;;;45.05;26.73;;;;;;;6.64;100.00;100082.34;5015567;28;20641;-46
2022/12/22 10:25:55;;;;;;;46.72;27.52;;;;;;;6.56;100.00;100083.50;5022495;28;20172;-45
2022/12/22 10:28:48;;;;;;;49.75;28.58;;;;;;;6.46;100.00;100084.72;5008088;28;20827;-46
2022/12/22 10:31:18;;;;;;;52.20;27.80;;;;;;;6.45;100.00;100090.06;4980186;28;20213;-46
2022/12/22 10:33:46;;;;;;;50.25;27.88;;;;;;;6.47;100.00;100089.13;5020785;28;20216;-44
2022/12/22 10:36:14;;;;;;;50.40;28.85;;;;;;;6.46;100.00;100098.00;5021448;28;20177;-44
2022/12/22 10:39:01;;;;;;;45.20;26.73;;;;;;;6.50;100.00;100086.34;5019591;28;20194;-47
2022/12/22 10:41:35;;;;;;;46.60;26.13;;;;;;;6.49;100.00;100089.91;5019713;28;20905;-45
2022/12/22 10:44:20;;;;;;;41.65;25.45;;;;;;;6.51;100.00;100072.09;5020998;28;20661;-46
2022/12/22 10:46:50;;;;;;;42.22;25.40;;;;;;;6.40;100.00;100068.94;5018550;28;20185;-45
2022/12/22 10:49:26;;;;;;;39.47;25.08;;;;;;;6.39;100.00;100075.19;5017336;28;20176;-42
2022/12/22 10:52:15;;;;;;;38.72;24.00;;;;;;;6.39;100.00;100073.41;5023559;28;20247;-45
2022/12/22 10:54:42;;;;;;;37.60;24.30;;;;;;;6.47;100.00;100066.94;5017883;28;20181;-46
2022/12/22 10:57:15;;;;;;;34.63;22.90;;;;;;;6.49;100.00;100063.31;5020391;28;20188;-45
2022/12/22 11:00:00;;;;;;;31.35;22.45;;;;;;;6.55;100.00;100071.09;5018617;28;20180;-48
2022/12/22 11:02:30;;;;;;;35.00;21.63;;;;;;;6.53;100.00;100062.28;5020949;28;20653;-44
2022/12/22 11:05:05;;;;;;;31.88;20.85;;;;;;;6.66;100.00;100056.56;5020433;28;20182;-45
2022/12/22 11:07:33;;;;;;;30.38;21.67;;;;;;;6.75;100.00;100062.41;5019835;28;20188;-46
2022/12/22 11:09:59;;;;;;;32.17;21.60;;;;;;;6.79;100.00;100058.72;5015120;28;20227;-47
2022/12/22 11:12:28;;;;;;;30.52;21.73;;;;;;;6.77;100.00;100063.22;5020416;28;20643;-46
2022/12/22 11:14:56;;;;;;;31.95;21.67;;;;;;;6.77;100.00;100051.72;5014438;28;20238;-46
2022/12/22 11:17:51;;;;;;;26.83;20.50;;;;;;;6.68;100.00;100052.91;5020043;28;20256;-45
2022/12/22 11:20:45;;;;;;;28.77;20.55;;;;;;;6.75;100.00;100064.22;5017681;28;20192;-48
2022/12/22 11:23:29;;;;;;;29.52;20.95;;;;;;;6.71;100.00;100049.25;5020048;28;20623;-46
2022/12/22 11:25:55;;;;;;;27.25;19.90;;;;;;;6.76;100.00;100044.66;5021177;28;20195;-47
2022/12/22 11:29:05;;;;;;;23.88;18.77;;;;;;;6.79;100.00;100049.88;5016515;28;20656;-47
2022/12/22 11:31:37;;;;;;;26.73;19.45;;;;;;;6.77;100.00;100049.91;5017697;28;20204;-47
2022/12/22 11:34:16;;;;;;;24.92;18.17;;;;;;;6.73;100.00;100048.28;5019042;28;20191;-46
2022/12/22 11:36:54;;;;;;;21.52;17.23;;;;;;;6.62;100.00;100050.44;5017267;28;20267;-46
2022/12/22 11:39:40;;;;;;;21.02;16.65;;;;;;;6.61;100.00;100048.72;5018368;28;20183;-47
2022/12/22 11:42:25;;;;;;;23.08;16.33;;;;;;;6.51;100.00;100045.50;5021584;28;20207;-44
2022/12/22 11:45:19;;;;;;;20.38;14.77;;;;;;;6.49;100.00;100047.34;5019509;28;20181;-44
2022/12/22 11:48:26;;;;;;;22.35;15.75;;;;;;;6.43;100.00;100055.56;5015763;28;20196;-45
2022/12/22 11:50:57;;;;;;;20.45;14.77;;;;;;;6.40;100.00;100052.97;4993134;28;20183;-45
2022/12/22 11:53:41;;;;;;;20.77;14.95;;;;;;;6.40;100.00;100052.97;5017843;28;20219;-46
2022/12/22 11:56:24;;;;;;;19.38;13.38;;;;;;;6.46;100.00;100035.94;5027373;28;20175;-43
2022/12/22 11:59:10;;;;;;;17.00;12.43;;;;;;;6.43;100.00;100041.34;5017554;28;20207;-44
2022/12/22 12:01:55;;;;;;;19.58;11.15;;;;;;;6.26;100.00;100045.47;5017040;28;20381;-45
2022/12/22 12:05:04;;;;;;;15.68;9.85;;;;;;;6.21;100.00;100046.53;5020593;28;20202;-45
2022/12/22 12:07:48;;;;;;;14.30;9.43;;;;;;;6.21;100.00;100055.41;5017998;28;20283;-45
2022/12/22 12:10:23;;;;;;;18.65;8.50;;;;;;;6.25;100.00;100051.69;5018866;28;20624;-44
2022/12/22 12:13:03;;;;;;;16.00;8.27;;;;;;;6.25;100.00;100041.06;5021566;28;20235;-45
2022/12/22 12:15:53;;;;;;;11.73;8.60;;;;;;;6.25;100.00;100043.72;5017090;28;20261;-44
2022/12/22 12:18:30;;;;;;;17.85;10.00;;;;;;;6.30;100.00;100039.13;5018988;28;20251;-45
2022/12/22 12:21:20;;;;;;;18.58;8.95;;;;;;;6.35;100.00;100041.63;5017763;28;20728;-45
2022/12/22 12:24:14;;;;;;;14.48;8.63;;;;;;;6.34;100.00;100038.09;5020606;28;20195;-45
2022/12/22 12:26:45;;;;;;;14.52;8.70;;;;;;;6.38;100.00;100033.53;5023256;28;20179;-45
2022/12/22 12:29:24;;;;;;;12.98;8.70;;;;;;;6.35;100.00;100037.19;5017628;28;20258;-45
2022/12/22 12:32:05;;;;;;;13.07;8.25;;;;;;;6.42;100.00;100040.50;5020921;28;20233;-44
2022/12/22 12:34:38;;;;;;;16.45;8.88;;;;;;;6.27;100.00;100031.22;5018917;28;20177;-50
2022/12/22 12:37:20;;;;;;;16.08;8.10;;;;;;;6.28;100.00;100053.41;5018051;28;20185;-45
2022/12/22 12:40:07;;;;;;;11.00;7.10;;;;;;;6.23;100.00;100044.69;5019957;28;20622;-45
2022/12/22 12:42:39;;;;;;;13.20;7.63;;;;;;;6.23;100.00;100053.56;5017791;28;20523;-44
2022/12/22 12:45:38;;;;;;;15.55;7.68;;;;;;;6.17;100.00;100053.75;5022716;28;20849;-45
2022/12/22 12:48:30;;;;;;;15.93;7.78;;;;;;;6.21;100.00;100044.75;5017991;28;20542;-46
2022/12/22 12:50:57;;;;;;;19.15;6.57;;;;;;;6.15;100.00;100051.13;5020678;28;20272;-45
2022/12/22 12:53:24;;;;;;;10.27;5.97;;;;;;;6.20;100.00;100056.31;5024895;28;20224;-44
2022/12/22 12:55:51;;;;;;;15.40;6.38;;;;;;;6.18;100.00;100050.16;5021482;28;20200;-47
2022/12/22 12:58:43;;;;;;;13.40;6.93;;;;;;;6.17;100.00;100043.97;5023017;28;20250;-45
2022/12/22 13:01:12;;;;;;;14.20;6.35;;;;;;;6.22;100.00;100035.84;5017689;28;20216;-46
2022/12/22 13:03:40;;;;;;;15.63;6.80;;;;;;;6.26;100.00;100039.28;5021733;28;20188;-45
2022/12/22 13:06:09;;;;;;;16.00;6.70;;;;;;;6.22;100.00;100041.16;5023980;28;20267;-44
2022/12/22 13:08:47;;;;;;;16.83;6.32;;;;;;;6.25;100.00;100048.16;5020050;28;20177;-45
2022/12/22 13:11:17;;;;;;;14.63;5.90;;;;;;;6.18;100.00;100048.38;5019748;28;20199;-44
2022/12/22 13:13:45;;;;;;;14.70;5.85;;;;;;;6.17;100.00;100056.41;5021159;28;20216;-45
2022/12/22 13:16:10;;;;;;;15.98;6.28;;;;;;;6.19;100.00;100046.59;5021214;28;20657;-44
2022/12/22 13:18:43;;;;;;;15.40;6.97;;;;;;;6.23;100.00;100060.66;5019568;28;20200;-45
2022/12/22 13:21:15;;;;;;;16.90;7.10;;;;;;;6.15;100.00;100061.78;5020849;28;20187;-44
2022/12/22 13:23:44;;;;;;;13.32;6.95;;;;;;;6.20;100.00;100069.59;5023132;28;20196;-44
2022/12/22 13:26:27;;;;;;;13.95;6.93;;;;;;;6.17;100.00;100065.25;5020866;28;20188;-43
2022/12/22 13:29:21;;;;;;;14.43;7.85;;;;;;;6.12;100.00;100055.69;5014708;28;20183;-46
2022/12/22 13:32:19;;;;;;;19.08;8.00;;;;;;;6.11;100.00;100056.59;5021654;28;20212;-44
2022/12/22 13:34:51;;;;;;;23.65;8.80;;;;;;;6.08;100.00;100070.88;5017186;28;20550;-45
2022/12/22 13:37:25;;;;;;;15.75;7.07;;;;;;;6.00;100.00;100064.94;5027855;28;20183;-45
2022/12/22 13:40:08;;;;;;;14.52;7.30;;;;;;;5.92;100.00;100054.47;5020962;28;20197;-45
2022/12/22 13:42:41;;;;;;;15.20;6.80;;;;;;;5.96;100.00;100061.47;5030695;28;20196;-47
2022/12/22 13:45:59;;;;;;;21.30;8.07;;;;;;;5.89;100.00;100075.88;5017545;28;20245;-46
2022/12/22 13:48:27;;;;;;;17.02;7.55;;;;;;;5.91;100.00;100078.47;5017541;28;20279;-46
2022/12/22 13:50:58;;;;;;;17.98;7.38;;;;;;;5.87;100.00;100085.69;5018639;28;20613;-46
2022/12/22 13:53:34;;;;;;;16.05;6.90;;;;;;;5.81;100.00;100085.00;5020141;28;20646;-48
2022/12/22 13:56:01;;;;;;;14.50;7.70;;;;;;;5.82;100.00;100081.44;5019146;28;20194;-47
2022/12/22 13:58:30;;;;;;;18.20;7.57;;;;;;;5.85;100.00;100079.53;5022154;28;20843;-47
2022/12/22 14:01:10;;;;;;;18.92;6.72;;;;;;;5.75;100.00;100078.97;5019152;28;20195;-45
2022/12/22 14:03:37;;;;;;;17.98;7.72;;;;;;;5.71;100.00;100087.94;5026989;28;20184;-46
2022/12/22 14:06:27;;;;;;;17.90;7.53;;;;;;;5.64;100.00;100096.13;5021727;28;20685;-45
2022/12/22 14:09:07;;;;;;;19.42;8.05;;;;;;;5.60;100.00;100090.06;5017229;28;20258;-46
2022/12/22 14:11:33;;;;;;;18.85;7.88;;;;;;;5.66;100.00;100108.44;5026694;28;20204;-46
2022/12/22 14:13:59;;;;;;;17.23;8.00;;;;;;;5.65;100.00;100113.84;5023093;28;20240;-46
2022/12/22 14:16:25;;;;;;;16.33;8.65;;;;;;;5.53;100.00;100115.03;5016298;28;20191;-46
2022/12/22 14:18:51;;;;;;;17.13;8.55;;;;;;;5.52;100.00;100123.94;5019546;28;20180;-47
2022/12/22 14:21:17;;;;;;;22.00;9.43;;;;;;;5.55;100.00;100123.84;5019786;28;20207;-44
2022/12/22 14:23:45;;;;;;;17.20;8.57;;;;;;;5.50;100.00;100117.78;5020055;28;20195;-45
2022/12/22 14:26:20;;;;;;;19.70;8.65;;;;;;;5.48;100.00;100136.44;4987778;28;20183;-46
2022/12/22 14:28:52;;;;;;;18.33;8.88;;;;;;;5.37;100.00;100130.56;5019824;28;20269;-46
2022/12/22 14:31:18;;;;;;;16.90;8.45;;;;;;;5.31;100.00;100134.28;5036310;28;20206;-46
2022/12/22 14:33:53;;;;;;;16.42;8.15;;;;;;;5.35;100.00;100137.69;5016713;28;20258;-46
2022/12/22 14:36:22;;;;;;;17.42;8.75;;;;;;;5.31;100.00;100136.03;5018143;28;20286;-48
2022/12/22 14:38:55;;;;;;;20.70;9.32;;;;;;;5.29;100.00;100128.13;5021468;28;20250;-47
2022/12/22 14:41:42;;;;;;;19.20;9.45;;;;;;;5.27;100.00;100118.44;5019272;28;20299;-46
2022/12/22 14:44:21;;;;;;;22.35;9.40;;;;;;;5.19;100.00;100116.00;5017070;28;20173;-43
2022/12/22 14:47:03;;;;;;;18.13;8.38;;;;;;;5.18;100.00;100119.56;5012432;28;20568;-44
2022/12/22 14:49:28;;;;;;;23.05;9.45;;;;;;;5.16;100.00;100110.78;5012092;28;20666;-45
2022/12/22 14:52:23;;;;;;;18.42;10.38;;;;;;;5.15;100.00;100106.38;5021652;28;20203;-45
2022/12/22 14:54:51;;;;;;;20.23;10.23;;;;;;;5.26;100.00;100122.88;4994092;28;20184;-43
2022/12/22 14:57:30;;;;;;;24.05;10.70;;;;;;;5.20;100.00;100114.22;5021746;28;20191;-43
2022/12/22 14:59:58;;;;;;;20.25;11.43;;;;;;;5.14;100.00;100113.47;5018010;28;20172;-44
2022/12/22 15:02:31;;;;;;;21.83;11.70;;;;;;;5.11;100.00;100116.19;5022746;28;20219;-42
2022/12/22 15:05:28;;;;;;;22.15;11.77;;;;;;;5.15;100.00;100107.25;5015013;28;20176;-46
2022/12/22 15:07:55;;;;;;;23.45;12.05;;;;;;;5.17;100.00;100123.16;5005017;28;20204;-44
2022/12/22 15:10:23;;;;;;;22.58;12.25;;;;;;;5.19;100.00;100120.47;5017054;28;20176;-41
2022/12/22 15:12:53;;;;;;;23.05;11.27;;;;;;;5.24;100.00;100121.19;5020770;28;20223;-42